sensor_id;sensor_type;location;lat;lon;timestamp;P1;durP1;ratioP1;P2;durP2;ratioP2
61675;SDS011;47574;52.090;5.244;2022-10-31T00:00:25;12.6;;;7.3;;
61675;SDS011;47574;52.090;5.244;2022-10-31T00:02:01;10.0;;;7.2;;
61675;SDS011;47574;52.090;5.244;2022-10-31T00:03:37;11.1;;;7.0;;
61675;SDS011;47574;52.090;5.244;2022-10-31T00:05:13;11.1;;;7.0;;
61675;SDS011;47574;52.090;5.244;2022-10-31T00:08:26;13.8;;;8.2;;
61675;SDS011;47574;52.090;5.244;2022-10-31T00:10:04;14.7;;;9.1;;
61675;SDS011;47574;52.090;5.244;2022-10-31T00:11:42;15.3;;;9.31;;
61675;SDS011;47574;52.090;5.244;2022-10-31T00:14:54;11.9;;;8.0;;
61675;SDS011;47574;52.090;5.244;2022-10-31T00:16:30;12.9;;;8.4;;
61675;SDS011;47574;52.090;5.244;2022-10-31T00:18:08;14.2;;;8.71;;
61675;SDS011;47574;52.090;5.244;2022-10-31T00:21:22;12.6;;;9.71;;
61675;SDS011;47574;52.090;5.244;2022-10-31T00:23:00;13.2;;;8.9;;
61675;SDS011;47574;52.090;5.244;2022-10-31T00:24:38;14.2;;;9.1;;
61675;SDS011;47574;52.090;5.244;2022-10-31T00:26:16;15.0;;;8.81;;
61675;SDS011;47574;52.090;5.244;2022-10-31T00:29:31;14.3;;;9.71;;
61675;SDS011;47574;52.090;5.244;2022-10-31T00:31:08;13.2;;;9.4;;
61675;SDS011;47574;52.090;5.244;2022-10-31T00:32:47;13.6;;;9.71;;
61675;SDS011;47574;52.090;5.244;2022-10-31T00:35:59;14.2;;;8.6;;
61675;SDS011;47574;52.090;5.244;2022-10-31T00:37:37;15.5;;;9.0;;
61675;SDS011;47574;52.090;5.244;2022-10-31T00:39:13;14.4;;;10.5;;
61675;SDS011;47574;52.090;5.244;2022-10-31T00:40:49;13.6;;;9.71;;
61675;SDS011;47574;52.090;5.244;2022-10-31T00:45:41;15.4;;;10.21;;
61675;SDS011;47574;52.090;5.244;2022-10-31T00:47:17;15.9;;;9.31;;
61675;SDS011;47574;52.090;5.244;2022-10-31T00:50:29;14.9;;;9.71;;
61675;SDS011;47574;52.090;5.244;2022-10-31T00:52:05;12.2;;;8.9;;
61675;SDS011;47574;52.090;5.244;2022-10-31T00:53:41;13.0;;;9.0;;
61675;SDS011;47574;52.090;5.244;2022-10-31T00:56:54;12.8;;;8.5;;
61675;SDS011;47574;52.090;5.244;2022-10-31T00:58:30;11.5;;;9.0;;
61675;SDS011;47574;52.090;5.244;2022-10-31T01:00:06;11.4;;;8.71;;
61675;SDS011;47574;52.090;5.244;2022-10-31T01:01:44;13.0;;;8.1;;
61675;SDS011;47574;52.090;5.244;2022-10-31T01:04:57;17.11;;;9.81;;
61675;SDS011;47574;52.090;5.244;2022-10-31T01:06:33;14.8;;;10.0;;
61675;SDS011;47574;52.090;5.244;2022-10-31T01:08:10;14.3;;;8.9;;
61675;SDS011;47574;52.090;5.244;2022-10-31T01:11:22;14.3;;;8.9;;
61675;SDS011;47574;52.090;5.244;2022-10-31T01:12:59;13.6;;;9.71;;
61675;SDS011;47574;52.090;5.244;2022-10-31T01:14:35;13.5;;;10.1;;
61675;SDS011;47574;52.090;5.244;2022-10-31T01:17:51;14.5;;;10.4;;
61675;SDS011;47574;52.090;5.244;2022-10-31T01:19:27;14.1;;;9.6;;
61675;SDS011;47574;52.090;5.244;2022-10-31T01:21:05;12.2;;;8.31;;
61675;SDS011;47574;52.090;5.244;2022-10-31T01:22:43;13.6;;;9.4;;
61675;SDS011;47574;52.090;5.244;2022-10-31T01:26:02;12.4;;;8.71;;
61675;SDS011;47574;52.090;5.244;2022-10-31T01:27:43;10.4;;;8.5;;
61675;SDS011;47574;52.090;5.244;2022-10-31T01:29:19;14.5;;;9.1;;
61675;SDS011;47574;52.090;5.244;2022-10-31T01:30:55;11.5;;;8.81;;
61675;SDS011;47574;52.090;5.244;2022-10-31T01:34:12;17.11;;;9.0;;
61675;SDS011;47574;52.090;5.244;2022-10-31T01:35:51;12.6;;;9.1;;
61675;SDS011;47574;52.090;5.244;2022-10-31T01:37:28;11.8;;;8.81;;
61675;SDS011;47574;52.090;5.244;2022-10-31T01:40:46;13.2;;;8.1;;
61675;SDS011;47574;52.090;5.244;2022-10-31T01:42:23;12.8;;;8.31;;
61675;SDS011;47574;52.090;5.244;2022-10-31T01:44:01;10.21;;;7.7;;
61675;SDS011;47574;52.090;5.244;2022-10-31T01:45:38;11.5;;;7.4;;
61675;SDS011;47574;52.090;5.244;2022-10-31T01:48:56;13.1;;;8.2;;
61675;SDS011;47574;52.090;5.244;2022-10-31T01:50:35;10.0;;;8.0;;
61675;SDS011;47574;52.090;5.244;2022-10-31T01:52:16;10.1;;;7.6;;
61675;SDS011;47574;52.090;5.244;2022-10-31T01:54:01;14.9;;;8.6;;
61675;SDS011;47574;52.090;5.244;2022-10-31T01:57:21;11.7;;;7.9;;
61675;SDS011;47574;52.090;5.244;2022-10-31T01:58:58;16.4;;;8.6;;
61675;SDS011;47574;52.090;5.244;2022-10-31T02:00:37;11.2;;;8.2;;
61675;SDS011;47574;52.090;5.244;2022-10-31T02:03:54;12.7;;;7.7;;
61675;SDS011;47574;52.090;5.244;2022-10-31T02:05:30;14.0;;;7.1;;
61675;SDS011;47574;52.090;5.244;2022-10-31T02:07:10;12.3;;;7.9;;
61675;SDS011;47574;52.090;5.244;2022-10-31T02:08:50;10.0;;;7.6;;
61675;SDS011;47574;52.090;5.244;2022-10-31T02:12:06;12.8;;;7.8;;
61675;SDS011;47574;52.090;5.244;2022-10-31T02:13:46;11.2;;;8.0;;
61675;SDS011;47574;52.090;5.244;2022-10-31T02:15:23;15.7;;;8.1;;
61675;SDS011;47574;52.090;5.244;2022-10-31T02:17:00;11.3;;;7.7;;
61675;SDS011;47574;52.090;5.244;2022-10-31T02:20:14;11.4;;;8.4;;
61675;SDS011;47574;52.090;5.244;2022-10-31T02:21:55;14.7;;;8.5;;
61675;SDS011;47574;52.090;5.244;2022-10-31T02:23:50;9.9;;;7.0;;
61675;SDS011;47574;52.090;5.244;2022-10-31T02:26:50;11.2;;;7.9;;
61675;SDS011;47574;52.090;5.244;2022-10-31T02:29:20;12.4;;;8.2;;
61675;SDS011;47574;52.090;5.244;2022-10-31T02:32:12;10.3;;;7.1;;
61675;SDS011;47574;52.090;5.244;2022-10-31T02:33:55;11.7;;;7.3;;
61675;SDS011;47574;52.090;5.244;2022-10-31T02:37:37;11.9;;;7.4;;
61675;SDS011;47574;52.090;5.244;2022-10-31T02:39:22;10.3;;;7.3;;
61675;SDS011;47574;52.090;5.244;2022-10-31T02:41:04;11.9;;;7.3;;
61675;SDS011;47574;52.090;5.244;2022-10-31T02:42:48;12.4;;;7.8;;
61675;SDS011;47574;52.090;5.244;2022-10-31T02:44:35;10.21;;;7.8;;
61675;SDS011;47574;52.090;5.244;2022-10-31T02:46:19;14.3;;;8.31;;
61675;SDS011;47574;52.090;5.244;2022-10-31T02:49:48;11.0;;;7.5;;
61675;SDS011;47574;52.090;5.244;2022-10-31T02:51:32;12.7;;;8.1;;
61675;SDS011;47574;52.090;5.244;2022-10-31T02:53:08;11.2;;;8.0;;
61675;SDS011;47574;52.090;5.244;2022-10-31T02:54:44;10.7;;;7.6;;
61675;SDS011;47574;52.090;5.244;2022-10-31T02:58:00;11.3;;;7.3;;
61675;SDS011;47574;52.090;5.244;2022-10-31T02:59:42;11.2;;;7.5;;
61675;SDS011;47574;52.090;5.244;2022-10-31T03:01:33;10.6;;;7.6;;
61675;SDS011;47574;52.090;5.244;2022-10-31T03:03:49;14.2;;;8.31;;
61675;SDS011;47574;52.090;5.244;2022-10-31T03:05:41;10.21;;;7.9;;
61675;SDS011;47574;52.090;5.244;2022-10-31T03:07:29;13.8;;;8.9;;
61675;SDS011;47574;52.090;5.244;2022-10-31T03:09:19;12.2;;;7.9;;
61675;SDS011;47574;52.090;5.244;2022-10-31T03:12:43;11.8;;;8.31;;
61675;SDS011;47574;52.090;5.244;2022-10-31T03:14:30;12.5;;;8.1;;
61675;SDS011;47574;52.090;5.244;2022-10-31T03:16:14;11.9;;;8.6;;
61675;SDS011;47574;52.090;5.244;2022-10-31T03:17:57;11.6;;;7.8;;
61675;SDS011;47574;52.090;5.244;2022-10-31T03:21:21;11.0;;;8.0;;
61675;SDS011;47574;52.090;5.244;2022-10-31T03:23:04;13.1;;;8.0;;
61675;SDS011;47574;52.090;5.244;2022-10-31T03:24:44;12.3;;;8.1;;
61675;SDS011;47574;52.090;5.244;2022-10-31T03:26:23;10.21;;;7.8;;
61675;SDS011;47574;52.090;5.244;2022-10-31T03:29:42;11.8;;;8.31;;
61675;SDS011;47574;52.090;5.244;2022-10-31T03:31:22;13.2;;;8.6;;
61675;SDS011;47574;52.090;5.244;2022-10-31T03:33:09;12.7;;;8.31;;
61675;SDS011;47574;52.090;5.244;2022-10-31T03:34:50;10.6;;;8.2;;
61675;SDS011;47574;52.090;5.244;2022-10-31T03:36:32;12.8;;;8.6;;
61675;SDS011;47574;52.090;5.244;2022-10-31T03:39:50;15.0;;;9.4;;
61675;SDS011;47574;52.090;5.244;2022-10-31T03:41:28;12.2;;;9.6;;
61675;SDS011;47574;52.090;5.244;2022-10-31T03:43:15;13.8;;;8.9;;
61675;SDS011;47574;52.090;5.244;2022-10-31T03:44:57;13.9;;;8.71;;
61675;SDS011;47574;52.090;5.244;2022-10-31T03:48:18;13.4;;;9.0;;
61675;SDS011;47574;52.090;5.244;2022-10-31T03:49:56;14.4;;;9.0;;
61675;SDS011;47574;52.090;5.244;2022-10-31T03:53:19;13.5;;;9.21;;
61675;SDS011;47574;52.090;5.244;2022-10-31T03:56:50;13.4;;;9.31;;
61675;SDS011;47574;52.090;5.244;2022-10-31T03:58:31;12.5;;;8.5;;
61675;SDS011;47574;52.090;5.244;2022-10-31T04:00:12;10.7;;;8.4;;
61675;SDS011;47574;52.090;5.244;2022-10-31T04:01:51;10.9;;;8.81;;
61675;SDS011;47574;52.090;5.244;2022-10-31T04:03:37;10.4;;;8.4;;
61675;SDS011;47574;52.090;5.244;2022-10-31T04:06:53;16.0;;;10.21;;
61675;SDS011;47574;52.090;5.244;2022-10-31T04:08:33;15.1;;;10.0;;
61675;SDS011;47574;52.090;5.244;2022-10-31T04:10:16;13.3;;;10.0;;
61675;SDS011;47574;52.090;5.244;2022-10-31T04:13:35;13.7;;;10.0;;
61675;SDS011;47574;52.090;5.244;2022-10-31T04:15:15;11.0;;;8.6;;
61675;SDS011;47574;52.090;5.244;2022-10-31T04:16:52;11.8;;;9.9;;
61675;SDS011;47574;52.090;5.244;2022-10-31T04:18:28;13.7;;;9.5;;
61675;SDS011;47574;52.090;5.244;2022-10-31T04:21:43;14.4;;;10.21;;
61675;SDS011;47574;52.090;5.244;2022-10-31T04:23:20;14.8;;;9.71;;
61675;SDS011;47574;52.090;5.244;2022-10-31T04:25:00;15.1;;;10.7;;
61675;SDS011;47574;52.090;5.244;2022-10-31T04:28:13;13.3;;;9.71;;
61675;SDS011;47574;52.090;5.244;2022-10-31T04:29:49;12.5;;;9.5;;
61675;SDS011;47574;52.090;5.244;2022-10-31T04:31:25;9.71;;;8.4;;
61675;SDS011;47574;52.090;5.244;2022-10-31T04:33:01;13.3;;;9.21;;
61675;SDS011;47574;52.090;5.244;2022-10-31T04:36:14;14.1;;;9.4;;
61675;SDS011;47574;52.090;5.244;2022-10-31T04:37:50;12.7;;;8.81;;
61675;SDS011;47574;52.090;5.244;2022-10-31T04:39:26;12.2;;;8.2;;
61675;SDS011;47574;52.090;5.244;2022-10-31T04:42:38;13.3;;;9.5;;
61675;SDS011;47574;52.090;5.244;2022-10-31T04:44:14;14.4;;;9.5;;
61675;SDS011;47574;52.090;5.244;2022-10-31T04:45:51;12.9;;;9.4;;
61675;SDS011;47574;52.090;5.244;2022-10-31T04:49:03;13.6;;;9.81;;
61675;SDS011;47574;52.090;5.244;2022-10-31T04:50:39;12.7;;;9.81;;
61675;SDS011;47574;52.090;5.244;2022-10-31T04:52:16;11.7;;;9.0;;
61675;SDS011;47574;52.090;5.244;2022-10-31T04:53:52;17.8;;;10.21;;
61675;SDS011;47574;52.090;5.244;2022-10-31T04:57:06;13.9;;;10.0;;
61675;SDS011;47574;52.090;5.244;2022-10-31T04:58:42;15.2;;;11.6;;
61675;SDS011;47574;52.090;5.244;2022-10-31T05:00:19;13.4;;;10.0;;
61675;SDS011;47574;52.090;5.244;2022-10-31T05:03:33;15.1;;;11.5;;
61675;SDS011;47574;52.090;5.244;2022-10-31T05:05:10;17.2;;;12.7;;
61675;SDS011;47574;52.090;5.244;2022-10-31T05:06:46;15.9;;;10.21;;
61675;SDS011;47574;52.090;5.244;2022-10-31T05:09:58;14.4;;;10.4;;
61675;SDS011;47574;52.090;5.244;2022-10-31T05:11:34;14.5;;;10.8;;
61675;SDS011;47574;52.090;5.244;2022-10-31T05:13:10;15.3;;;11.0;;
61675;SDS011;47574;52.090;5.244;2022-10-31T05:14:46;13.6;;;10.0;;
61675;SDS011;47574;52.090;5.244;2022-10-31T05:17:59;14.3;;;10.8;;
61675;SDS011;47574;52.090;5.244;2022-10-31T05:19:36;16.11;;;10.8;;
61675;SDS011;47574;52.090;5.244;2022-10-31T05:21:12;15.7;;;11.1;;
61675;SDS011;47574;52.090;5.244;2022-10-31T05:24:26;12.5;;;10.4;;
61675;SDS011;47574;52.090;5.244;2022-10-31T05:26:03;13.3;;;10.7;;
61675;SDS011;47574;52.090;5.244;2022-10-31T05:27:40;13.6;;;10.3;;
61675;SDS011;47574;52.090;5.244;2022-10-31T05:30:53;15.5;;;11.7;;
61675;SDS011;47574;52.090;5.244;2022-10-31T05:32:35;13.7;;;11.1;;
61675;SDS011;47574;52.090;5.244;2022-10-31T05:34:12;16.0;;;11.0;;
61675;SDS011;47574;52.090;5.244;2022-10-31T05:35:49;14.7;;;10.9;;
61675;SDS011;47574;52.090;5.244;2022-10-31T05:39:01;15.4;;;10.5;;
61675;SDS011;47574;52.090;5.244;2022-10-31T05:40:38;14.0;;;9.9;;
61675;SDS011;47574;52.090;5.244;2022-10-31T05:42:14;15.0;;;9.81;;
61675;SDS011;47574;52.090;5.244;2022-10-31T05:45:28;13.9;;;10.5;;
61675;SDS011;47574;52.090;5.244;2022-10-31T05:47:04;12.1;;;10.1;;
61675;SDS011;47574;52.090;5.244;2022-10-31T05:48:41;14.8;;;10.9;;
61675;SDS011;47574;52.090;5.244;2022-10-31T05:51:54;14.9;;;11.0;;
61675;SDS011;47574;52.090;5.244;2022-10-31T05:53:30;12.8;;;10.9;;
61675;SDS011;47574;52.090;5.244;2022-10-31T05:55:07;14.6;;;11.1;;
61675;SDS011;47574;52.090;5.244;2022-10-31T05:56:44;13.9;;;11.4;;
61675;SDS011;47574;52.090;5.244;2022-10-31T05:59:56;15.1;;;11.9;;
61675;SDS011;47574;52.090;5.244;2022-10-31T06:01:33;17.0;;;13.3;;
61675;SDS011;47574;52.090;5.244;2022-10-31T06:03:09;17.91;;;13.6;;
61675;SDS011;47574;52.090;5.244;2022-10-31T06:06:22;19.5;;;14.5;;
61675;SDS011;47574;52.090;5.244;2022-10-31T06:07:58;22.3;;;15.8;;
61675;SDS011;47574;52.090;5.244;2022-10-31T06:09:34;25.0;;;16.9;;
61675;SDS011;47574;52.090;5.244;2022-10-31T06:12:46;25.3;;;17.2;;
61675;SDS011;47574;52.090;5.244;2022-10-31T06:14:23;25.7;;;18.0;;
61675;SDS011;47574;52.090;5.244;2022-10-31T06:16:00;27.6;;;18.61;;
61675;SDS011;47574;52.090;5.244;2022-10-31T06:17:36;25.4;;;17.3;;
61675;SDS011;47574;52.090;5.244;2022-10-31T06:20:48;31.3;;;19.3;;
61675;SDS011;47574;52.090;5.244;2022-10-31T06:22:24;28.2;;;18.61;;
61675;SDS011;47574;52.090;5.244;2022-10-31T06:24:02;28.3;;;18.8;;
61675;SDS011;47574;52.090;5.244;2022-10-31T06:27:15;28.1;;;19.2;;
61675;SDS011;47574;52.090;5.244;2022-10-31T06:28:51;25.9;;;18.0;;
61675;SDS011;47574;52.090;5.244;2022-10-31T06:30:27;24.7;;;18.2;;
61675;SDS011;47574;52.090;5.244;2022-10-31T06:33:40;26.8;;;18.11;;
61675;SDS011;47574;52.090;5.244;2022-10-31T06:35:17;27.6;;;19.41;;
61675;SDS011;47574;52.090;5.244;2022-10-31T06:36:53;26.2;;;18.7;;
61675;SDS011;47574;52.090;5.244;2022-10-31T06:38:29;25.1;;;19.0;;
61675;SDS011;47574;52.090;5.244;2022-10-31T06:41:42;25.9;;;18.61;;
61675;SDS011;47574;52.090;5.244;2022-10-31T06:43:18;25.1;;;19.11;;
61675;SDS011;47574;52.090;5.244;2022-10-31T06:44:55;26.0;;;17.5;;
61675;SDS011;47574;52.090;5.244;2022-10-31T06:48:08;29.7;;;19.2;;
61675;SDS011;47574;52.090;5.244;2022-10-31T06:49:44;22.9;;;18.2;;
61675;SDS011;47574;52.090;5.244;2022-10-31T06:51:20;25.1;;;18.5;;
61675;SDS011;47574;52.090;5.244;2022-10-31T06:54:34;25.2;;;19.3;;
61675;SDS011;47574;52.090;5.244;2022-10-31T06:56:10;25.3;;;17.91;;
61675;SDS011;47574;52.090;5.244;2022-10-31T06:57:49;23.8;;;17.7;;
61675;SDS011;47574;52.090;5.244;2022-10-31T06:59:26;24.6;;;19.0;;
61675;SDS011;47574;52.090;5.244;2022-10-31T07:02:38;24.6;;;18.11;;
61675;SDS011;47574;52.090;5.244;2022-10-31T07:04:14;23.9;;;18.7;;
61675;SDS011;47574;52.090;5.244;2022-10-31T07:05:50;22.8;;;18.41;;
61675;SDS011;47574;52.090;5.244;2022-10-31T07:09:03;24.0;;;18.11;;
61675;SDS011;47574;52.090;5.244;2022-10-31T07:10:41;25.9;;;18.8;;
61675;SDS011;47574;52.090;5.244;2022-10-31T07:12:18;22.5;;;17.8;;
61675;SDS011;47574;52.090;5.244;2022-10-31T07:15:33;24.4;;;19.11;;
61675;SDS011;47574;52.090;5.244;2022-10-31T07:17:13;23.0;;;17.8;;
61675;SDS011;47574;52.090;5.244;2022-10-31T07:18:50;23.6;;;18.2;;
61675;SDS011;47574;52.090;5.244;2022-10-31T07:20:27;22.9;;;17.2;;
61675;SDS011;47574;52.090;5.244;2022-10-31T07:23:39;23.0;;;18.5;;
61675;SDS011;47574;52.090;5.244;2022-10-31T07:25:15;24.1;;;17.61;;
61675;SDS011;47574;52.090;5.244;2022-10-31T07:26:52;23.9;;;17.8;;
61675;SDS011;47574;52.090;5.244;2022-10-31T07:30:08;24.0;;;18.61;;
61675;SDS011;47574;52.090;5.244;2022-10-31T07:31:48;25.0;;;18.91;;
61675;SDS011;47574;52.090;5.244;2022-10-31T07:33:26;25.4;;;18.7;;
61675;SDS011;47574;52.090;5.244;2022-10-31T07:35:02;26.0;;;18.2;;
61675;SDS011;47574;52.090;5.244;2022-10-31T07:38:14;26.4;;;18.0;;
61675;SDS011;47574;52.090;5.244;2022-10-31T07:39:51;25.6;;;18.7;;
61675;SDS011;47574;52.090;5.244;2022-10-31T07:41:27;28.6;;;20.11;;
61675;SDS011;47574;52.090;5.244;2022-10-31T07:44:41;24.1;;;18.2;;
61675;SDS011;47574;52.090;5.244;2022-10-31T07:46:17;27.7;;;19.41;;
61675;SDS011;47574;52.090;5.244;2022-10-31T07:47:53;26.6;;;19.3;;
61675;SDS011;47574;52.090;5.244;2022-10-31T07:51:06;32.1;;;20.9;;
61675;SDS011;47574;52.090;5.244;2022-10-31T07:52:43;28.3;;;19.61;;
61675;SDS011;47574;52.090;5.244;2022-10-31T07:54:20;28.0;;;19.8;;
61675;SDS011;47574;52.090;5.244;2022-10-31T07:55:56;25.6;;;20.2;;
61675;SDS011;47574;52.090;5.244;2022-10-31T07:59:08;30.0;;;20.7;;
61675;SDS011;47574;52.090;5.244;2022-10-31T08:00:45;31.8;;;21.2;;
61675;SDS011;47574;52.090;5.244;2022-10-31T08:02:23;33.3;;;22.8;;
61675;SDS011;47574;52.090;5.244;2022-10-31T08:05:36;32.0;;;22.2;;
61675;SDS011;47574;52.090;5.244;2022-10-31T08:07:13;32.0;;;21.7;;
61675;SDS011;47574;52.090;5.244;2022-10-31T08:08:49;27.4;;;20.7;;
61675;SDS011;47574;52.090;5.244;2022-10-31T08:12:03;30.7;;;22.4;;
61675;SDS011;47574;52.090;5.244;2022-10-31T08:13:40;35.4;;;24.1;;
61675;SDS011;47574;52.090;5.244;2022-10-31T08:15:16;32.0;;;22.9;;
61675;SDS011;47574;52.090;5.244;2022-10-31T08:16:52;34.71;;;23.1;;
61675;SDS011;47574;52.090;5.244;2022-10-31T08:20:06;34.71;;;22.5;;
61675;SDS011;47574;52.090;5.244;2022-10-31T08:21:43;34.5;;;24.3;;
61675;SDS011;47574;52.090;5.244;2022-10-31T08:23:19;34.1;;;23.8;;
61675;SDS011;47574;52.090;5.244;2022-10-31T08:26:32;31.1;;;22.4;;
61675;SDS011;47574;52.090;5.244;2022-10-31T08:28:10;33.4;;;23.5;;
61675;SDS011;47574;52.090;5.244;2022-10-31T08:29:47;33.21;;;23.9;;
61675;SDS011;47574;52.090;5.244;2022-10-31T08:33:03;37.6;;;24.8;;
61675;SDS011;47574;52.090;5.244;2022-10-31T08:34:41;34.0;;;24.5;;
61675;SDS011;47574;52.090;5.244;2022-10-31T08:36:17;31.8;;;24.5;;
61675;SDS011;47574;52.090;5.244;2022-10-31T08:37:54;32.71;;;24.0;;
61675;SDS011;47574;52.090;5.244;2022-10-31T08:41:07;35.0;;;24.9;;
61675;SDS011;47574;52.090;5.244;2022-10-31T08:42:43;35.5;;;25.0;;
61675;SDS011;47574;52.090;5.244;2022-10-31T08:44:21;32.6;;;24.8;;
61675;SDS011;47574;52.090;5.244;2022-10-31T08:47:33;31.4;;;24.7;;
61675;SDS011;47574;52.090;5.244;2022-10-31T08:49:09;33.5;;;23.9;;
61675;SDS011;47574;52.090;5.244;2022-10-31T08:50:45;35.21;;;23.4;;
61675;SDS011;47574;52.090;5.244;2022-10-31T08:52:23;35.21;;;23.4;;
61675;SDS011;47574;52.090;5.244;2022-10-31T08:55:36;35.81;;;24.3;;
61675;SDS011;47574;52.090;5.244;2022-10-31T08:57:14;35.0;;;25.1;;
61675;SDS011;47574;52.090;5.244;2022-10-31T08:58:52;33.8;;;24.3;;
61675;SDS011;47574;52.090;5.244;2022-10-31T09:02:04;32.6;;;24.0;;
61675;SDS011;47574;52.090;5.244;2022-10-31T09:03:40;32.71;;;25.5;;
61675;SDS011;47574;52.090;5.244;2022-10-31T09:05:16;32.9;;;24.4;;
61675;SDS011;47574;52.090;5.244;2022-10-31T09:08:29;32.6;;;22.9;;
61675;SDS011;47574;52.090;5.244;2022-10-31T09:10:07;33.0;;;23.9;;
61675;SDS011;47574;52.090;5.244;2022-10-31T09:11:43;31.5;;;24.1;;
61675;SDS011;47574;52.090;5.244;2022-10-31T09:13:20;36.5;;;25.0;;
61675;SDS011;47574;52.090;5.244;2022-10-31T09:16:33;31.4;;;23.7;;
61675;SDS011;47574;52.090;5.244;2022-10-31T09:18:09;30.4;;;24.3;;
61675;SDS011;47574;52.090;5.244;2022-10-31T09:19:46;31.7;;;24.1;;
61675;SDS011;47574;52.090;5.244;2022-10-31T09:23:00;33.3;;;24.9;;
61675;SDS011;47574;52.090;5.244;2022-10-31T09:24:37;31.4;;;24.4;;
61675;SDS011;47574;52.090;5.244;2022-10-31T09:26:14;34.21;;;23.8;;
61675;SDS011;47574;52.090;5.244;2022-10-31T09:29:26;35.9;;;24.8;;
61675;SDS011;47574;52.090;5.244;2022-10-31T09:31:02;31.6;;;24.1;;
61675;SDS011;47574;52.090;5.244;2022-10-31T09:32:38;32.21;;;25.0;;
61675;SDS011;47574;52.090;5.244;2022-10-31T09:34:14;35.9;;;24.5;;
61675;SDS011;47574;52.090;5.244;2022-10-31T09:37:27;29.9;;;23.8;;
61675;SDS011;47574;52.090;5.244;2022-10-31T09:39:03;35.81;;;24.7;;
61675;SDS011;47574;52.090;5.244;2022-10-31T09:40:40;33.71;;;24.9;;
61675;SDS011;47574;52.090;5.244;2022-10-31T09:44:25;36.31;;;24.7;;
61675;SDS011;47574;52.090;5.244;2022-10-31T09:46:14;32.0;;;24.3;;
61675;SDS011;47574;52.090;5.244;2022-10-31T09:48:07;33.9;;;23.6;;
61675;SDS011;47574;52.090;5.244;2022-10-31T09:50:14;31.9;;;24.0;;
61675;SDS011;47574;52.090;5.244;2022-10-31T09:51:57;30.8;;;23.4;;
61675;SDS011;47574;52.090;5.244;2022-10-31T09:53:50;29.4;;;21.9;;
61675;SDS011;47574;52.090;5.244;2022-10-31T09:55:35;29.7;;;22.3;;
61675;SDS011;47574;52.090;5.244;2022-10-31T09:57:15;31.6;;;20.9;;
61675;SDS011;47574;52.090;5.244;2022-10-31T10:00:40;27.2;;;20.11;;
61675;SDS011;47574;52.090;5.244;2022-10-31T10:02:18;27.6;;;20.3;;
61675;SDS011;47574;52.090;5.244;2022-10-31T10:04:01;29.0;;;19.8;;
61675;SDS011;47574;52.090;5.244;2022-10-31T10:05:51;28.6;;;19.91;;
61675;SDS011;47574;52.090;5.244;2022-10-31T10:09:20;26.2;;;18.8;;
61675;SDS011;47574;52.090;5.244;2022-10-31T10:11:07;25.0;;;17.0;;
61675;SDS011;47574;52.090;5.244;2022-10-31T10:13:05;21.1;;;16.61;;
61675;SDS011;47574;52.090;5.244;2022-10-31T10:15:18;19.5;;;16.4;;
61675;SDS011;47574;52.090;5.244;2022-10-31T10:18:05;22.3;;;17.0;;
61675;SDS011;47574;52.090;5.244;2022-10-31T10:20:00;21.1;;;16.3;;
61675;SDS011;47574;52.090;5.244;2022-10-31T10:21:51;23.3;;;16.7;;
61675;SDS011;47574;52.090;5.244;2022-10-31T10:23:44;24.4;;;16.5;;
61675;SDS011;47574;52.090;5.244;2022-10-31T10:25:33;20.5;;;16.3;;
61675;SDS011;47574;52.090;5.244;2022-10-31T10:27:14;20.5;;;15.8;;
61675;SDS011;47574;52.090;5.244;2022-10-31T10:29:01;20.8;;;16.5;;
61675;SDS011;47574;52.090;5.244;2022-10-31T10:30:54;21.3;;;15.9;;
61675;SDS011;47574;52.090;5.244;2022-10-31T10:34:19;19.5;;;15.4;;
61675;SDS011;47574;52.090;5.244;2022-10-31T10:36:03;21.2;;;15.8;;
61675;SDS011;47574;52.090;5.244;2022-10-31T10:37:44;21.5;;;15.6;;
61675;SDS011;47574;52.090;5.244;2022-10-31T10:39:25;21.2;;;16.3;;
61675;SDS011;47574;52.090;5.244;2022-10-31T10:43:25;20.2;;;15.7;;
61675;SDS011;47574;52.090;5.244;2022-10-31T10:48:02;21.6;;;15.8;;
61675;SDS011;47574;52.090;5.244;2022-10-31T10:49:44;19.8;;;16.3;;
61675;SDS011;47574;52.090;5.244;2022-10-31T10:53:24;23.9;;;16.4;;
61675;SDS011;47574;52.090;5.244;2022-10-31T10:55:15;20.41;;;16.11;;
61675;SDS011;47574;52.090;5.244;2022-10-31T10:57:03;22.1;;;16.2;;
61675;SDS011;47574;52.090;5.244;2022-10-31T10:58:50;23.3;;;17.3;;
61675;SDS011;47574;52.090;5.244;2022-10-31T11:00:29;24.0;;;17.2;;
61675;SDS011;47574;52.090;5.244;2022-10-31T11:02:15;23.8;;;17.11;;
61675;SDS011;47574;52.090;5.244;2022-10-31T11:05:39;20.9;;;16.4;;
61675;SDS011;47574;52.090;5.244;2022-10-31T11:07:22;22.0;;;16.8;;
61675;SDS011;47574;52.090;5.244;2022-10-31T11:09:08;22.3;;;16.61;;
61675;SDS011;47574;52.090;5.244;2022-10-31T11:10:45;21.4;;;16.9;;
61675;SDS011;47574;52.090;5.244;2022-10-31T11:12:33;24.3;;;17.41;;
61675;SDS011;47574;52.090;5.244;2022-10-31T11:15:51;21.5;;;16.0;;
61675;SDS011;47574;52.090;5.244;2022-10-31T11:17:36;26.2;;;18.11;;
61675;SDS011;47574;52.090;5.244;2022-10-31T11:19:17;23.6;;;17.5;;
61675;SDS011;47574;52.090;5.244;2022-10-31T11:21:03;29.3;;;18.0;;
61675;SDS011;47574;52.090;5.244;2022-10-31T11:24:19;24.3;;;17.7;;
61675;SDS011;47574;52.090;5.244;2022-10-31T11:25:58;24.3;;;17.7;;
61675;SDS011;47574;52.090;5.244;2022-10-31T11:27:36;32.4;;;19.8;;
61675;SDS011;47574;52.090;5.244;2022-10-31T11:30:52;37.21;;;20.6;;
61675;SDS011;47574;52.090;5.244;2022-10-31T11:32:33;33.21;;;20.11;;
61675;SDS011;47574;52.090;5.244;2022-10-31T11:34:13;34.4;;;21.3;;
61675;SDS011;47574;52.090;5.244;2022-10-31T11:35:54;35.81;;;21.8;;
61675;SDS011;47574;52.090;5.244;2022-10-31T11:39:15;30.1;;;20.9;;
61675;SDS011;47574;52.090;5.244;2022-10-31T11:40:56;31.0;;;21.3;;
61675;SDS011;47574;52.090;5.244;2022-10-31T11:42:38;33.0;;;22.4;;
61675;SDS011;47574;52.090;5.244;2022-10-31T11:44:18;33.0;;;22.4;;
61675;SDS011;47574;52.090;5.244;2022-10-31T11:47:36;32.6;;;23.7;;
61675;SDS011;47574;52.090;5.244;2022-10-31T11:49:14;37.21;;;24.1;;
61675;SDS011;47574;52.090;5.244;2022-10-31T11:50:54;32.0;;;22.4;;
61675;SDS011;47574;52.090;5.244;2022-10-31T11:52:33;35.21;;;22.9;;
61675;SDS011;47574;52.090;5.244;2022-10-31T11:56:03;32.5;;;22.8;;
61675;SDS011;47574;52.090;5.244;2022-10-31T11:57:46;34.5;;;24.1;;
61675;SDS011;47574;52.090;5.244;2022-10-31T11:59:27;38.4;;;24.0;;
61675;SDS011;47574;52.090;5.244;2022-10-31T12:01:05;35.31;;;24.2;;
61675;SDS011;47574;52.090;5.244;2022-10-31T12:04:18;33.9;;;23.0;;
61675;SDS011;47574;52.090;5.244;2022-10-31T12:06:05;35.1;;;23.7;;
61675;SDS011;47574;52.090;5.244;2022-10-31T12:07:46;35.81;;;24.6;;
61675;SDS011;47574;52.090;5.244;2022-10-31T12:09:25;37.0;;;24.2;;
61675;SDS011;47574;52.090;5.244;2022-10-31T12:13:08;39.21;;;25.7;;
61675;SDS011;47574;52.090;5.244;2022-10-31T12:15:11;35.71;;;24.3;;
61675;SDS011;47574;52.090;5.244;2022-10-31T12:17:26;37.1;;;24.7;;
61675;SDS011;47574;52.090;5.244;2022-10-31T12:19:13;37.21;;;24.7;;
61675;SDS011;47574;52.090;5.244;2022-10-31T12:21:04;38.0;;;24.7;;
61675;SDS011;47574;52.090;5.244;2022-10-31T12:22:56;35.71;;;24.4;;
61675;SDS011;47574;52.090;5.244;2022-10-31T12:24:44;39.0;;;24.9;;
61675;SDS011;47574;52.090;5.244;2022-10-31T12:26:38;39.31;;;25.4;;
61675;SDS011;47574;52.090;5.244;2022-10-31T12:28:29;39.6;;;26.4;;
61675;SDS011;47574;52.090;5.244;2022-10-31T12:30:21;41.0;;;25.6;;
61675;SDS011;47574;52.090;5.244;2022-10-31T12:32:10;40.0;;;25.0;;
61675;SDS011;47574;52.090;5.244;2022-10-31T12:36:10;37.1;;;24.8;;
61675;SDS011;47574;52.090;5.244;2022-10-31T12:38:07;36.21;;;23.8;;
61675;SDS011;47574;52.090;5.244;2022-10-31T12:40:27;40.9;;;25.6;;
61675;SDS011;47574;52.090;5.244;2022-10-31T12:44:19;41.4;;;25.0;;
61675;SDS011;47574;52.090;5.244;2022-10-31T12:46:19;40.4;;;25.7;;
61675;SDS011;47574;52.090;5.244;2022-10-31T12:48:14;36.71;;;23.9;;